Time;durP1;ratioP1;P1;durP2;ratioP2;P2;SDS_P1;SDS_P2;PMS_P1;PMS_P2;Temp;Humidity;BMP_temperature;BMP_pressure;BME280_temperature;BME280_humidity;BME280_pressure;Samples;Min_cycle;Max_cycle;Signal;HPM_P1;HPM_P2
2022/01/03 00:01:14;;;;;;;3.67;2.60;;;11.10;99.90;;;;;;4976476;28;20452;-52
2022/01/03 00:03:41;;;;;;;4.00;2.40;;;11.10;99.90;;;;;;4977064;29;20472;-46
2022/01/03 00:06:08;;;;;;;4.00;2.67;;;11.10;99.90;;;;;;4976650;29;20439;-43
2022/01/03 00:08:36;;;;;;;4.93;2.90;;;11.10;99.90;;;;;;4976572;28;20472;-48
2022/01/03 00:11:02;;;;;;;3.63;2.63;;;11.10;99.90;;;;;;4977227;28;20440;-43
2022/01/03 00:13:31;;;;;;;4.10;2.43;;;11.10;99.90;;;;;;4976359;29;20479;-48
2022/01/03 00:15:57;;;;;;;3.57;2.60;;;11.10;99.90;;;;;;4976411;29;20480;-51
2022/01/03 00:18:24;;;;;;;4.93;3.00;;;11.10;99.90;;;;;;4976770;28;20436;-51
2022/01/03 00:20:58;;;;;;;4.50;2.50;;;11.10;99.90;;;;;;4976530;29;20467;-45
2022/01/03 00:23:27;;;;;;;3.10;2.10;;;11.20;99.90;;;;;;4976406;29;20496;-50
2022/01/03 00:26:03;;;;;;;3.83;2.60;;;11.20;99.90;;;;;;4976375;29;20523;-50
2022/01/03 00:28:37;;;;;;;2.10;1.60;;;11.20;99.90;;;;;;4976288;29;20433;-48
2022/01/03 00:31:05;;;;;;;3.93;2.20;;;11.20;99.90;;;;;;4976162;29;20432;-46
2022/01/03 00:33:33;;;;;;;10.70;2.60;;;11.20;99.90;;;;;;4975738;29;20457;-54
2022/01/03 00:36:01;;;;;;;4.33;2.53;;;11.20;99.90;;;;;;4976266;29;20472;-50
2022/01/03 00:38:29;;;;;;;4.70;2.90;;;11.20;99.90;;;;;;4976379;29;20461;-48
2022/01/03 00:40:59;;;;;;;3.83;2.33;;;11.10;99.90;;;;;;4976473;28;20416;-47
2022/01/03 00:43:26;;;;;;;3.00;2.30;;;11.10;99.90;;;;;;4975964;29;20487;-48
2022/01/03 00:45:54;;;;;;;2.77;2.03;;;11.10;99.90;;;;;;4975685;29;20990;-51
2022/01/03 00:48:21;;;;;;;2.70;1.87;;;11.10;99.90;;;;;;4975860;29;20437;-52
2022/01/03 00:50:48;;;;;;;4.20;2.40;;;11.10;99.90;;;;;;4976456;29;20482;-54
2022/01/03 00:53:15;;;;;;;2.80;2.40;;;11.10;99.90;;;;;;4975880;29;20428;-48
2022/01/03 00:56:00;;;;;;;3.43;2.67;;;11.20;99.90;;;;;;4975653;29;20445;-50
2022/01/03 00:58:34;;;;;;;2.07;1.87;;;11.20;99.90;;;;;;4975975;29;20472;-47
2022/01/03 01:01:02;;;;;;;4.73;2.93;;;11.20;99.90;;;;;;4974598;29;20462;-48
2022/01/03 01:03:37;;;;;;;5.33;2.10;;;11.20;99.90;;;;;;4975873;29;20500;-52
2022/01/03 01:06:06;;;;;;;6.20;3.10;;;11.20;99.90;;;;;;4975874;28;20449;-52
2022/01/03 01:08:35;;;;;;;4.57;2.03;;;11.10;99.90;;;;;;4979378;29;20464;-51
2022/01/03 01:11:03;;;;;;;2.70;1.90;;;11.10;99.90;;;;;;4980562;29;20443;-40
2022/01/03 01:13:32;;;;;;;3.77;1.90;;;11.00;99.90;;;;;;4979606;28;20472;-50
2022/01/03 01:15:59;;;;;;;3.60;2.30;;;10.90;99.90;;;;;;4979503;29;20460;-52
2022/01/03 01:18:31;;;;;;;2.30;1.70;;;10.80;99.90;;;;;;4979991;28;20451;-58
2022/01/03 01:20:58;;;;;;;2.60;1.80;;;10.70;99.90;;;;;;4979218;29;20471;-53
2022/01/03 01:23:25;;;;;;;10.73;2.70;;;10.70;99.90;;;;;;4979354;28;20522;-51
2022/01/03 01:28:39;;;;;;;3.13;1.70;;;10.70;99.90;;;;;;4979459;29;20412;-47
2022/01/03 01:31:07;;;;;;;1.60;1.37;;;10.70;99.90;;;;;;4979568;29;20440;-48
2022/01/03 01:33:38;;;;;;;2.50;1.87;;;10.70;99.90;;;;;;4980002;29;20436;-47
2022/01/03 01:36:07;;;;;;;2.70;1.53;;;10.70;99.90;;;;;;4979590;29;20437;-46
2022/01/03 01:38:35;;;;;;;2.73;2.00;;;10.60;99.90;;;;;;4979199;29;20475;-50
2022/01/03 01:41:05;;;;;;;2.03;1.93;;;10.60;99.90;;;;;;4979645;29;20456;-50
2022/01/03 01:43:36;;;;;;;2.60;2.10;;;10.60;99.90;;;;;;4979055;29;20476;-51
2022/01/03 01:46:08;;;;;;;2.30;1.80;;;10.60;99.90;;;;;;4979238;29;20588;-50
2022/01/03 01:48:38;;;;;;;1.80;1.60;;;10.70;99.90;;;;;;4979278;29;20459;-47
2022/01/03 01:51:06;;;;;;;1.93;1.73;;;10.60;99.90;;;;;;4979063;29;20467;-51
2022/01/03 01:53:40;;;;;;;3.77;2.03;;;10.60;99.90;;;;;;4978891;29;20442;-53
2022/01/03 01:56:14;;;;;;;2.43;1.63;;;10.60;99.90;;;;;;4979428;29;20461;-51
2022/01/03 01:58:53;;;;;;;3.57;2.03;;;10.60;99.90;;;;;;4979298;29;20472;-44
2022/01/03 02:01:22;;;;;;;1.97;1.40;;;10.70;99.90;;;;;;4979360;29;20518;-47
2022/01/03 02:03:58;;;;;;;3.53;1.80;;;10.60;99.90;;;;;;4978888;29;20491;-49
2022/01/03 02:06:33;;;;;;;3.73;2.17;;;10.60;99.90;;;;;;4979001;29;20469;-52
2022/01/03 02:09:06;;;;;;;2.87;1.57;;;10.60;99.90;;;;;;4979057;29;20428;-47
2022/01/03 02:11:51;;;;;;;3.97;2.00;;;10.50;99.90;;;;;;4978686;29;20472;-51
2022/01/03 02:14:19;;;;;;;1.40;1.00;;;10.50;99.90;;;;;;4979132;29;20436;-51
2022/01/03 02:16:47;;;;;;;2.03;1.43;;;10.40;99.90;;;;;;4978786;29;20475;-58
2022/01/03 02:19:16;;;;;;;1.80;1.40;;;10.40;99.90;;;;;;4978345;28;20432;-45
2022/01/03 02:21:44;;;;;;;1.53;1.20;;;10.30;99.90;;;;;;4979048;28;20471;-45
2022/01/03 02:24:11;;;;;;;1.60;1.23;;;10.30;99.90;;;;;;4978786;29;20472;-50
2022/01/03 02:26:39;;;;;;;2.30;1.80;;;10.30;99.90;;;;;;4978347;29;20526;-46
2022/01/03 02:29:07;;;;;;;2.70;1.50;;;10.30;99.90;;;;;;4978361;29;20452;-44
2022/01/03 02:31:34;;;;;;;1.70;1.10;;;10.30;99.90;;;;;;4978456;29;20517;-49
2022/01/03 02:34:03;;;;;;;1.50;1.23;;;10.20;99.90;;;;;;4978595;29;20508;-45
2022/01/03 02:36:32;;;;;;;1.80;1.40;;;10.20;99.90;;;;;;4978494;29;20453;-48
2022/01/03 02:39:03;;;;;;;1.30;1.10;;;10.20;99.90;;;;;;4978478;29;20456;-46
2022/01/03 02:41:30;;;;;;;1.20;0.73;;;10.20;99.90;;;;;;4978689;29;20437;-44
2022/01/03 02:43:58;;;;;;;3.03;1.20;;;10.20;99.90;;;;;;4978780;29;20478;-46
2022/01/03 02:46:26;;;;;;;1.20;1.00;;;10.30;99.90;;;;;;4978476;29;20504;-48
2022/01/03 02:48:53;;;;;;;4.27;1.80;;;10.30;99.90;;;;;;4978808;29;20520;-47
2022/01/03 02:51:20;;;;;;;1.10;1.00;;;10.30;99.90;;;;;;4978992;28;20451;-46
2022/01/03 02:53:47;;;;;;;2.30;1.10;;;10.30;99.90;;;;;;4978670;29;20827;-53
2022/01/03 02:56:17;;;;;;;1.43;1.07;;;10.30;99.90;;;;;;4977874;28;20472;-53
2022/01/03 02:58:46;;;;;;;2.30;2.10;;;10.30;99.90;;;;;;4978282;29;20436;-48
2022/01/03 03:01:12;;;;;;;1.47;1.30;;;10.30;99.90;;;;;;4977908;29;20507;-47
2022/01/03 03:03:39;;;;;;;2.27;1.37;;;10.30;99.90;;;;;;4977589;29;20476;-50
2022/01/03 03:06:08;;;;;;;1.57;1.07;;;10.30;99.90;;;;;;4977872;29;20479;-49
2022/01/03 03:08:36;;;;;;;2.10;1.43;;;10.20;99.90;;;;;;4977824;29;20929;-50
2022/01/03 03:11:03;;;;;;;2.30;1.07;;;10.20;99.90;;;;;;4978002;29;20488;-51
2022/01/03 03:13:31;;;;;;;1.27;1.00;;;10.20;99.90;;;;;;4977642;29;20459;-48
2022/01/03 03:16:00;;;;;;;1.00;0.90;;;10.20;99.90;;;;;;4977779;28;20444;-48
2022/01/03 03:18:26;;;;;;;1.23;1.00;;;10.20;99.90;;;;;;4977661;29;20475;-49
2022/01/03 03:20:54;;;;;;;1.23;0.97;;;10.10;99.90;;;;;;4978380;28;20454;-55
2022/01/03 03:23:23;;;;;;;1.53;0.93;;;10.20;99.90;;;;;;4978367;29;20488;-50
2022/01/03 03:25:49;;;;;;;1.03;0.80;;;10.20;99.90;;;;;;4978802;29;20416;-50
2022/01/03 03:28:16;;;;;;;1.53;1.10;;;10.20;99.90;;;;;;4978619;29;20487;-55
2022/01/03 03:30:46;;;;;;;1.60;0.90;;;10.20;99.90;;;;;;4977793;28;20420;-50
2022/01/03 03:33:14;;;;;;;3.23;1.10;;;10.20;99.90;;;;;;4978577;29;20436;-49
2022/01/03 03:35:42;;;;;;;1.10;0.70;;;10.20;99.90;;;;;;4978426;29;20472;-56
2022/01/03 03:38:09;;;;;;;1.07;0.97;;;10.10;99.90;;;;;;4978373;29;20468;-55
2022/01/03 03:40:37;;;;;;;3.30;1.00;;;10.10;99.90;;;;;;4978660;29;20459;-47
2022/01/03 03:43:04;;;;;;;1.00;0.87;;;10.00;99.90;;;;;;4978321;29;20448;-51
2022/01/03 03:45:32;;;;;;;2.10;1.20;;;10.00;99.90;;;;;;4978401;29;20469;-51
2022/01/03 03:48:00;;;;;;;1.00;0.83;;;10.00;99.90;;;;;;4978099;29;20474;-57
2022/01/03 03:50:30;;;;;;;1.40;1.23;;;10.00;99.90;;;;;;4978515;28;20478;-50
2022/01/03 03:52:57;;;;;;;3.43;1.20;;;10.00;99.90;;;;;;4978466;29;20408;-54
2022/01/03 03:55:24;;;;;;;4.47;1.30;;;10.00;99.90;;;;;;4978201;28;20475;-49
2022/01/03 03:57:51;;;;;;;1.30;0.97;;;9.90;99.90;;;;;;4978410;29;20454;-50
2022/01/03 04:00:19;;;;;;;1.17;0.97;;;9.90;99.90;;;;;;4977872;28;20453;-50
2022/01/03 04:02:48;;;;;;;3.57;1.20;;;10.00;99.90;;;;;;4977808;29;20504;-52
2022/01/03 04:05:18;;;;;;;2.50;1.50;;;9.90;99.90;;;;;;4977313;29;20495;-57
2022/01/03 04:07:45;;;;;;;6.50;1.60;;;9.90;99.90;;;;;;4978125;29;20448;-50
2022/01/03 04:10:16;;;;;;;2.03;1.87;;;9.80;99.90;;;;;;4977837;29;20420;-59
2022/01/03 04:12:43;;;;;;;1.10;0.90;;;9.80;99.90;;;;;;4977493;29;20465;-49
2022/01/03 04:15:11;;;;;;;1.10;0.90;;;9.70;99.90;;;;;;4977551;29;20451;-60
2022/01/03 04:17:38;;;;;;;5.13;1.07;;;9.70;99.90;;;;;;4977441;29;20459;-53
2022/01/03 04:20:06;;;;;;;1.80;1.07;;;9.70;99.90;;;;;;4977414;29;20479;-57
2022/01/03 04:22:35;;;;;;;1.30;1.00;;;9.70;99.90;;;;;;4977813;29;20447;-57
2022/01/03 04:25:01;;;;;;;1.20;1.07;;;9.70;99.90;;;;;;4977537;29;20490;-52
2022/01/03 04:27:28;;;;;;;1.20;1.00;;;9.70;99.90;;;;;;4977611;29;20455;-55
2022/01/03 04:29:55;;;;;;;1.10;0.80;;;9.70;99.90;;;;;;4977450;29;20469;-53
2022/01/03 04:32:21;;;;;;;1.20;0.90;;;9.60;99.90;;;;;;4977057;29;20436;-44
2022/01/03 04:34:48;;;;;;;1.10;0.83;;;9.60;99.90;;;;;;4976756;29;20431;-49
2022/01/03 04:37:15;;;;;;;0.97;0.77;;;9.60;99.90;;;;;;4977297;29;20464;-47
2022/01/03 04:39:44;;;;;;;0.90;0.70;;;9.60;99.90;;;;;;4976816;29;20482;-49
2022/01/03 04:42:10;;;;;;;0.90;0.60;;;9.60;99.90;;;;;;4976639;28;20465;-46
2022/01/03 04:44:37;;;;;;;0.80;0.50;;;9.60;99.90;;;;;;4976876;29;20475;-46
2022/01/03 04:47:04;;;;;;;3.57;0.73;;;9.60;99.90;;;;;;4976745;29;20475;-51
2022/01/03 04:49:31;;;;;;;1.10;0.60;;;9.70;99.90;;;;;;4976842;29;20419;-54
2022/01/03 04:52:01;;;;;;;0.90;0.60;;;9.70;99.90;;;;;;4977005;29;20441;-47
2022/01/03 04:54:27;;;;;;;2.10;0.90;;;9.60;99.90;;;;;;4976909;29;20472;-48
2022/01/03 04:56:59;;;;;;;0.80;0.50;;;9.60;99.90;;;;;;4976839;29;20452;-50
2022/01/03 04:59:25;;;;;;;0.80;0.50;;;9.60;99.90;;;;;;4976620;28;20430;-47
2022/01/03 05:01:53;;;;;;;0.80;0.50;;;9.60;99.90;;;;;;4976676;29;20519;-48
2022/01/03 05:04:20;;;;;;;5.43;0.90;;;9.60;99.90;;;;;;4976667;29;20518;-49
2022/01/03 05:06:47;;;;;;;0.80;0.60;;;9.60;99.90;;;;;;4976383;29;20446;-45
2022/01/03 05:09:13;;;;;;;0.80;0.60;;;9.60;99.90;;;;;;4975587;29;20501;-50
2022/01/03 05:11:41;;;;;;;1.00;0.70;;;9.50;99.90;;;;;;4975697;29;20451;-45
2022/01/03 05:14:10;;;;;;;0.83;0.57;;;9.50;99.90;;;;;;4976294;29;20455;-48
2022/01/03 05:16:36;;;;;;;0.80;0.50;;;9.50;99.90;;;;;;4976665;29;20432;-50
2022/01/03 05:19:03;;;;;;;0.90;0.60;;;9.40;99.90;;;;;;4976438;29;20442;-41
2022/01/03 05:21:30;;;;;;;0.90;0.70;;;9.40;99.90;;;;;;4976626;29;20496;-48
2022/01/03 05:23:59;;;;;;;0.90;0.60;;;9.50;99.90;;;;;;4976632;29;20486;-48
2022/01/03 05:26:29;;;;;;;0.90;0.60;;;9.40;99.90;;;;;;4976305;29;20488;-48
2022/01/03 05:28:56;;;;;;;1.00;0.70;;;9.40;99.90;;;;;;4976229;29;20462;-49
2022/01/03 05:31:24;;;;;;;1.03;0.80;;;9.40;99.90;;;;;;4976390;29;20472;-46
2022/01/03 05:33:56;;;;;;;0.83;0.50;;;9.40;99.90;;;;;;4975803;29;20430;-50
2022/01/03 05:36:23;;;;;;;1.10;0.73;;;9.30;99.90;;;;;;4976237;29;20447;-48
2022/01/03 05:38:49;;;;;;;0.90;0.60;;;9.30;99.90;;;;;;4976234;29;20466;-50
2022/01/03 05:41:16;;;;;;;0.90;0.70;;;9.30;99.90;;;;;;4976448;29;20443;-49
2022/01/03 05:43:43;;;;;;;1.30;0.80;;;9.30;99.90;;;;;;4976501;29;20477;-51
2022/01/03 05:46:10;;;;;;;1.27;0.80;;;9.20;99.90;;;;;;4976028;29;20451;-49
2022/01/03 05:48:38;;;;;;;0.80;0.60;;;9.10;99.90;;;;;;4976073;29;20468;-42
2022/01/03 05:51:05;;;;;;;1.13;0.60;;;9.10;99.90;;;;;;4976147;29;20450;-52
2022/01/03 05:53:31;;;;;;;0.80;0.50;;;9.00;99.90;;;;;;4978085;28;20527;-52
2022/01/03 05:55:58;;;;;;;1.10;0.70;;;9.00;99.90;;;;;;4980036;29;20446;-49
2022/01/03 05:58:25;;;;;;;0.80;0.50;;;8.90;99.90;;;;;;4979593;28;20476;-43
2022/01/03 06:00:52;;;;;;;1.10;0.60;;;8.80;99.90;;;;;;4979474;29;20448;-48
2022/01/03 06:03:21;;;;;;;1.93;0.80;;;8.80;99.90;;;;;;4979512;29;20432;-47
2022/01/03 06:06:18;;;;;;;0.80;0.50;;;8.80;99.90;;;;;;4979401;29;20491;-51
2022/01/03 06:08:46;;;;;;;0.80;0.60;;;8.80;99.90;;;;;;4979195;29;20476;-51
2022/01/03 06:11:12;;;;;;;1.70;1.10;;;8.80;99.90;;;;;;4979166;29;20460;-49
2022/01/03 06:13:39;;;;;;;1.40;1.13;;;8.80;99.90;;;;;;4979234;29;20500;-44
2022/01/03 06:16:07;;;;;;;5.97;0.90;;;8.80;99.90;;;;;;4979337;29;20492;-44
2022/01/03 06:18:34;;;;;;;1.20;1.07;;;8.80;99.90;;;;;;4979360;29;20551;-49
2022/01/03 06:21:02;;;;;;;1.67;1.13;;;8.80;99.90;;;;;;4979206;29;20468;-48
2022/01/03 06:23:29;;;;;;;0.90;0.70;;;8.80;99.90;;;;;;4979018;29;20410;-50
2022/01/03 06:25:56;;;;;;;1.93;1.73;;;8.80;99.90;;;;;;4979132;29;20491;-49
2022/01/03 06:28:22;;;;;;;0.90;0.60;;;8.80;99.90;;;;;;4979092;29;20473;-55
2022/01/03 06:30:49;;;;;;;0.90;0.60;;;8.90;99.90;;;;;;4978889;29;20584;-54
2022/01/03 06:33:16;;;;;;;1.10;0.70;;;8.90;99.90;;;;;;4978680;29;20479;-46
2022/01/03 06:35:45;;;;;;;5.83;0.80;;;9.00;99.90;;;;;;4978869;29;20468;-46
2022/01/03 06:38:13;;;;;;;2.60;0.90;;;9.00;99.90;;;;;;4978468;29;20471;-50
2022/01/03 06:40:42;;;;;;;0.90;0.60;;;9.10;99.90;;;;;;4978645;29;20443;-46
2022/01/03 06:43:08;;;;;;;3.20;0.83;;;9.10;99.90;;;;;;4978889;28;20477;-50
2022/01/03 06:45:37;;;;;;;1.03;0.67;;;9.10;99.90;;;;;;4978508;29;20978;-48
2022/01/03 06:48:04;;;;;;;3.33;0.70;;;9.10;99.90;;;;;;4978838;28;20502;-48
2022/01/03 06:50:34;;;;;;;2.70;1.00;;;9.10;99.90;;;;;;4978912;28;20475;-47
2022/01/03 06:53:00;;;;;;;5.63;1.20;;;9.20;99.90;;;;;;4978463;29;20470;-50
2022/01/03 06:55:28;;;;;;;1.63;0.83;;;9.30;99.90;;;;;;4976125;29;20465;-52
2022/01/03 06:57:55;;;;;;;1.33;0.80;;;9.30;99.90;;;;;;4974228;28;20454;-53
2022/01/03 07:00:22;;;;;;;1.30;1.10;;;9.30;99.90;;;;;;4964187;29;20936;-49
2022/01/03 07:02:48;;;;;;;2.83;0.90;;;9.30;99.90;;;;;;4958215;29;20458;-47
2022/01/03 07:05:16;;;;;;;5.17;0.93;;;9.30;99.90;;;;;;4960192;28;20558;-49
2022/01/03 07:07:42;;;;;;;4.40;1.27;;;9.30;99.90;;;;;;4962253;29;20484;-54
2022/01/03 07:10:11;;;;;;;2.67;0.90;;;9.40;99.90;;;;;;4961817;29;20459;-50
2022/01/03 07:12:39;;;;;;;1.30;0.87;;;9.40;99.90;;;;;;4962344;28;20486;-53
2022/01/03 07:20:36;;;;;;;1.20;0.90;;;9.40;99.90;;;;;;4962080;29;20540;-53
2022/01/03 07:23:03;;;;;;;1.97;1.10;;;9.50;99.90;;;;;;4962688;29;20475;-52
2022/01/03 07:25:29;;;;;;;4.47;1.20;;;9.40;99.90;;;;;;4962072;29;20484;-51
2022/01/03 07:27:57;;;;;;;3.10;1.00;;;9.50;99.90;;;;;;4962523;29;20773;-52
2022/01/03 07:30:24;;;;;;;5.93;1.20;;;9.40;99.90;;;;;;4963218;28;20502;-52
2022/01/03 07:32:51;;;;;;;7.23;0.93;;;9.40;99.90;;;;;;4962420;29;20462;-52
2022/01/03 07:35:18;;;;;;;1.57;0.90;;;9.40;99.90;;;;;;4961557;29;20479;-50
2022/01/03 07:37:44;;;;;;;4.30;1.17;;;9.40;99.90;;;;;;4961628;29;20459;-50
2022/01/03 07:40:12;;;;;;;3.13;1.60;;;9.40;99.90;;;;;;4961395;29;20474;-51
2022/01/03 07:42:40;;;;;;;4.07;1.27;;;9.50;99.90;;;;;;4961494;29;20947;-52
2022/01/03 07:45:09;;;;;;;3.73;1.00;;;9.50;99.90;;;;;;4961214;29;20502;-54
2022/01/03 07:47:36;;;;;;;15.77;3.60;;;9.50;99.90;;;;;;4960945;29;20584;-50
2022/01/03 07:50:04;;;;;;;4.63;1.57;;;9.50;99.90;;;;;;4961266;28;20494;-53
2022/01/03 07:52:31;;;;;;;2.50;0.83;;;9.50;99.90;;;;;;4961278;28;20440;-49
2022/01/03 07:54:58;;;;;;;7.33;2.03;;;9.50;99.90;;;;;;4961485;29;20459;-50
2022/01/03 07:57:24;;;;;;;3.67;1.83;;;9.50;99.90;;;;;;4953248;29;20480;-50
2022/01/03 07:59:51;;;;;;;5.93;1.50;;;9.50;99.90;;;;;;4954675;29;20461;-50
2022/01/03 08:02:25;;;;;;;4.37;1.30;;;9.40;99.90;;;;;;4946191;29;20476;-52
2022/01/03 08:04:52;;;;;;;6.43;2.83;;;9.40;99.90;;;;;;4962003;29;20536;-52
2022/01/03 08:07:19;;;;;;;4.10;1.47;;;9.40;99.90;;;;;;4950230;29;20468;-49
2022/01/03 08:09:47;;;;;;;2.23;1.47;;;9.40;99.90;;;;;;4944048;29;20456;-52
2022/01/03 08:12:16;;;;;;;4.60;0.80;;;9.40;99.90;;;;;;4961632;28;20463;-48
2022/01/03 08:14:43;;;;;;;4.10;1.00;;;9.50;99.90;;;;;;4961626;28;20507;-53
2022/01/03 08:17:10;;;;;;;9.00;2.30;;;9.40;99.90;;;;;;4961742;28;20467;-54
2022/01/03 08:19:38;;;;;;;4.10;1.03;;;9.40;99.90;;;;;;4961428;28;20453;-52
2022/01/03 08:22:05;;;;;;;1.73;0.80;;;9.30;99.90;;;;;;4961765;28;20460;-49
2022/01/03 08:24:36;;;;;;;1.90;1.20;;;9.30;99.90;;;;;;4961642;28;20503;-54
2022/01/03 08:27:03;;;;;;;1.30;1.00;;;9.30;99.90;;;;;;4961581;28;20475;-54
2022/01/03 08:29:30;;;;;;;6.17;1.60;;;9.40;99.90;;;;;;4961553;28;20462;-48
2022/01/03 08:31:57;;;;;;;2.67;0.83;;;9.30;99.90;;;;;;4960960;28;20510;-49
2022/01/03 08:34:23;;;;;;;2.50;1.10;;;9.40;99.90;;;;;;4961734;28;20440;-52
2022/01/03 08:36:52;;;;;;;1.57;1.03;;;9.40;99.90;;;;;;4961808;28;20462;-50
2022/01/03 08:39:21;;;;;;;1.20;1.10;;;9.40;99.90;;;;;;4961472;28;20557;-55
2022/01/03 08:41:47;;;;;;;7.50;2.03;;;9.40;99.90;;;;;;4961183;28;20494;-50
2022/01/03 08:44:14;;;;;;;3.30;1.00;;;9.40;99.90;;;;;;4961822;28;20532;-50
2022/01/03 08:46:41;;;;;;;5.90;1.40;;;9.50;99.90;;;;;;4961611;28;20978;-54
2022/01/03 08:49:10;;;;;;;3.80;1.70;;;9.50;99.90;;;;;;4961521;28;20502;-50
2022/01/03 08:51:36;;;;;;;10.93;2.30;;;9.50;99.90;;;;;;4961657;28;20484;-51
2022/01/03 08:54:06;;;;;;;5.90;2.03;;;9.50;99.90;;;;;;4961119;28;20515;-48
2022/01/03 08:56:33;;;;;;;9.30;3.30;;;9.60;99.90;;;;;;4961290;28;20479;-50
2022/01/03 08:59:00;;;;;;;9.00;1.53;;;9.70;99.90;;;;;;4960958;28;20443;-49
2022/01/03 09:01:26;;;;;;;4.13;1.43;;;9.70;99.90;;;;;;4960778;28;20463;-52
2022/01/03 09:03:53;;;;;;;7.80;1.00;;;9.80;99.90;;;;;;4960775;28;20475;-51
2022/01/03 09:06:20;;;;;;;1.83;1.10;;;9.80;99.90;;;;;;4961307;28;20495;-50
2022/01/03 09:08:48;;;;;;;3.27;1.10;;;9.90;99.90;;;;;;4960631;28;20490;-55
2022/01/03 09:11:16;;;;;;;2.93;1.50;;;9.90;99.90;;;;;;4960791;28;20440;-51
2022/01/03 09:13:46;;;;;;;4.00;1.50;;;9.90;99.90;;;;;;4960737;28;20463;-55
2022/01/03 09:16:13;;;;;;;5.90;1.50;;;10.00;99.90;;;;;;4959658;28;20938;-50
2022/01/03 09:18:41;;;;;;;3.57;1.10;;;10.00;99.90;;;;;;4960431;28;20522;-56
2022/01/03 09:21:08;;;;;;;4.30;1.80;;;10.00;99.90;;;;;;4960320;28;20481;-53
2022/01/03 09:23:43;;;;;;;6.70;1.60;;;10.00;99.90;;;;;;4960733;28;20435;-53
2022/01/03 09:28:57;;;;;;;1.30;1.07;;;10.00;99.90;;;;;;4963092;29;20511;-53
2022/01/03 09:31:27;;;;;;;4.73;1.87;;;10.00;99.90;;;;;;4964333;28;20973;-51
2022/01/03 09:33:55;;;;;;;7.10;1.90;;;10.00;99.90;;;;;;4964028;28;20482;-52
2022/01/03 09:36:22;;;;;;;10.53;1.93;;;10.00;99.90;;;;;;4963476;28;20544;-50
2022/01/03 09:38:50;;;;;;;4.00;1.30;;;10.10;99.90;;;;;;4963902;28;20454;-49
2022/01/03 09:41:20;;;;;;;4.40;2.20;;;10.20;99.90;;;;;;4963289;28;20542;-52
2022/01/03 09:43:50;;;;;;;11.07;1.13;;;10.20;99.90;;;;;;4963314;28;20448;-54
2022/01/03 09:46:23;;;;;;;5.47;2.30;;;10.10;99.90;;;;;;4963576;28;20982;-49
2022/01/03 09:48:52;;;;;;;3.33;1.33;;;10.10;99.90;;;;;;4964072;28;20446;-53
2022/01/03 09:51:27;;;;;;;9.03;1.63;;;10.10;99.90;;;;;;4963374;28;20457;-55
2022/01/03 09:53:56;;;;;;;8.17;1.97;;;10.00;99.90;;;;;;4964333;28;20479;-48
2022/01/03 09:56:24;;;;;;;1.23;1.00;;;10.10;99.90;;;;;;4963452;28;20469;-49
2022/01/03 09:58:51;;;;;;;10.53;1.47;;;10.10;99.90;;;;;;4964204;28;20490;-50
2022/01/03 10:01:20;;;;;;;1.93;0.90;;;10.10;99.90;;;;;;4963844;28;20523;-48
2022/01/03 10:03:49;;;;;;;8.00;1.60;;;10.20;99.90;;;;;;4963510;28;20781;-53
2022/01/03 10:06:20;;;;;;;1.43;1.17;;;10.30;99.90;;;;;;4963528;28;20471;-54
2022/01/03 10:08:50;;;;;;;1.23;1.13;;;10.40;99.90;;;;;;4963132;28;20424;-53
2022/01/03 10:11:19;;;;;;;7.93;1.90;;;10.50;99.90;;;;;;4963565;28;20472;-53
2022/01/03 10:13:46;;;;;;;5.20;1.83;;;10.60;99.90;;;;;;4964646;28;20454;-52
2022/01/03 10:16:16;;;;;;;6.40;2.17;;;10.60;99.90;;;;;;4967359;28;20494;-54
2022/01/03 10:18:46;;;;;;;10.30;2.03;;;10.60;99.90;;;;;;4967564;28;20483;-54
2022/01/03 10:21:13;;;;;;;6.63;1.80;;;10.60;99.90;;;;;;4966714;28;20497;-54
2022/01/03 10:23:55;;;;;;;11.30;1.73;;;10.60;99.90;;;;;;4966979;28;20490;-50
2022/01/03 10:26:22;;;;;;;5.27;1.23;;;10.80;99.90;;;;;;4965806;28;20499;-53
2022/01/03 10:28:51;;;;;;;2.23;1.70;;;11.00;99.90;;;;;;4965292;28;20484;-50
2022/01/03 10:31:22;;;;;;;2.13;1.67;;;11.10;99.90;;;;;;4963151;28;21107;-52
2022/01/03 10:34:06;;;;;;;8.70;2.00;;;11.20;99.90;;;;;;4963085;28;20492;-49
2022/01/03 10:36:44;;;;;;;5.83;2.07;;;11.20;99.90;;;;;;4962659;28;20432;-51
2022/01/03 10:39:18;;;;;;;3.60;1.50;;;11.30;99.90;;;;;;4962170;28;20440;-54
2022/01/03 10:41:45;;;;;;;6.30;2.40;;;11.30;99.90;;;;;;4963127;28;20476;-47
2022/01/03 10:44:12;;;;;;;5.50;2.20;;;11.30;99.90;;;;;;4961894;28;20540;-50
2022/01/03 10:46:49;;;;;;;11.43;2.60;;;11.30;99.90;;;;;;4962223;28;20496;-50
2022/01/03 10:49:19;;;;;;;5.27;2.93;;;11.30;99.90;;;;;;4963418;28;20503;-49
2022/01/03 10:51:48;;;;;;;2.53;1.83;;;11.30;99.90;;;;;;4964640;28;20432;-49
2022/01/03 10:54:18;;;;;;;7.70;2.80;;;11.40;99.90;;;;;;4963874;28;20483;-47
2022/01/03 10:56:48;;;;;;;6.00;2.37;;;11.40;99.90;;;;;;4961992;28;20918;-48
2022/01/03 10:59:21;;;;;;;2.87;2.23;;;11.40;99.90;;;;;;4962198;28;20472;-50
2022/01/03 11:02:01;;;;;;;6.63;2.30;;;11.40;99.90;;;;;;4961940;28;20460;-48
2022/01/03 11:04:36;;;;;;;7.77;2.17;;;11.30;99.90;;;;;;4962578;28;21076;-48
2022/01/03 11:10:43;;;;;;;3.17;2.40;;;11.30;99.90;;;;;;4962600;28;20499;-45
2022/01/03 11:13:08;;;;;;;7.83;2.63;;;11.40;99.90;;;;;;4962022;29;20451;-50
2022/01/03 11:15:35;;;;;;;3.20;2.67;;;11.40;99.90;;;;;;4962737;28;20432;-48
2022/01/03 11:18:18;;;;;;;4.17;3.77;;;11.40;99.90;;;;;;4961892;28;20787;-50
2022/01/03 11:20:50;;;;;;;4.17;2.30;;;11.40;99.90;;;;;;4961963;28;20468;-50
2022/01/03 11:23:25;;;;;;;3.80;1.70;;;11.30;99.90;;;;;;4962298;28;20440;-47
2022/01/03 11:25:54;;;;;;;3.80;2.20;;;11.40;99.90;;;;;;4962241;28;20472;-52
2022/01/03 11:28:26;;;;;;;7.90;2.07;;;11.30;99.90;;;;;;4961834;28;20486;-51
2022/01/03 11:31:02;;;;;;;6.40;2.17;;;11.30;99.90;;;;;;4961917;28;20779;-49
2022/01/03 11:33:29;;;;;;;7.97;2.70;;;11.20;99.90;;;;;;4961545;28;20445;-48
2022/01/03 11:36:01;;;;;;;6.00;2.87;;;11.30;99.90;;;;;;4961700;28;20464;-46
2022/01/03 11:38:30;;;;;;;10.40;5.00;;;11.30;99.90;;;;;;4962087;28;20433;-51
2022/01/03 11:41:00;;;;;;;3.60;2.70;;;11.20;99.90;;;;;;4961580;28;20453;-49
2022/01/03 11:43:30;;;;;;;10.27;1.93;;;11.20;99.90;;;;;;4961091;28;20472;-54
2022/01/03 11:45:58;;;;;;;7.00;2.90;;;11.20;99.90;;;;;;4961955;28;20546;-49
2022/01/03 11:48:26;;;;;;;5.37;2.40;;;11.10;99.90;;;;;;4960988;28;20483;-46
2022/01/03 11:50:54;;;;;;;6.43;2.63;;;11.20;99.90;;;;;;4960582;28;20468;-50
2022/01/03 11:53:23;;;;;;;5.83;2.83;;;11.30;99.90;;;;;;4961564;28;20449;-48
2022/01/03 11:55:57;;;;;;;4.13;2.37;;;11.40;99.90;;;;;;4961517;28;20484;-49
2022/01/03 11:58:45;;;;;;;3.87;2.30;;;11.40;99.90;;;;;;4961496;28;20444;-48
2022/01/03 12:03:59;;;;;;;3.90;1.90;;;11.30;99.90;;;;;;4961264;29;20464;-52
2022/01/03 12:06:29;;;;;;;6.60;1.80;;;11.30;99.90;;;;;;4961478;28;20515;-49
2022/01/03 12:08:59;;;;;;;10.47;3.40;;;11.90;99.90;;;;;;4962081;28;20448;-48
2022/01/03 12:11:29;;;;;;;4.53;1.87;;;12.20;99.90;;;;;;4963246;28;20470;-48
2022/01/03 12:14:00;;;;;;;10.80;2.17;;;12.30;99.90;;;;;;4962558;28;20480;-48
2022/01/03 12:16:42;;;;;;;2.70;1.83;;;12.40;99.90;;;;;;4961434;28;20448;-48
2022/01/03 12:19:13;;;;;;;6.67;2.80;;;12.60;99.90;;;;;;4961830;28;20829;-51
2022/01/03 12:21:54;;;;;;;2.33;1.63;;;12.30;99.90;;;;;;4962098;28;20510;-49
2022/01/03 12:24:51;;;;;;;2.80;1.77;;;12.00;99.90;;;;;;4962368;28;20490;-49
2022/01/03 12:27:26;;;;;;;8.77;2.30;;;11.80;99.90;;;;;;4961949;28;20476;-47
2022/01/03 12:30:09;;;;;;;7.30;2.03;;;11.70;99.90;;;;;;4961897;28;20442;-49
2022/01/03 12:32:37;;;;;;;4.27;2.10;;;11.60;99.90;;;;;;4962143;28;20476;-51
2022/01/03 12:35:21;;;;;;;8.50;2.13;;;11.50;99.90;;;;;;4961729;28;21032;-49
2022/01/03 12:38:03;;;;;;;6.27;2.50;;;11.50;99.90;;;;;;4960266;28;20471;-49
2022/01/03 12:40:33;;;;;;;9.97;2.70;;;11.40;99.90;;;;;;4959007;28;20491;-49
2022/01/03 12:43:05;;;;;;;2.40;2.20;;;11.40;99.90;;;;;;4962263;28;20452;-50
2022/01/03 12:45:53;;;;;;;8.50;2.80;;;11.30;99.90;;;;;;4962007;28;20440;-47
2022/01/03 12:48:23;;;;;;;12.20;4.73;;;11.30;99.90;;;;;;4961350;28;20448;-52
2022/01/03 12:51:14;;;;;;;5.33;2.73;;;11.30;99.90;;;;;;4961330;28;20479;-50
2022/01/03 12:53:49;;;;;;;5.50;1.60;;;11.30;99.90;;;;;;4954146;28;20955;-47
2022/01/03 12:56:21;;;;;;;8.60;2.07;;;11.30;99.90;;;;;;4952580;29;20559;-47
2022/01/03 12:58:51;;;;;;;5.13;1.73;;;11.40;99.90;;;;;;4953314;29;20496;-46
2022/01/03 13:01:25;;;;;;;8.67;2.07;;;11.40;99.90;;;;;;4947999;29;20470;-43
2022/01/03 13:03:53;;;;;;;3.70;1.90;;;11.40;99.90;;;;;;4950804;29;20452;-50
2022/01/03 13:06:21;;;;;;;6.53;3.00;;;11.40;99.90;;;;;;4942767;29;20492;-51
2022/01/03 13:09:06;;;;;;;6.30;3.20;;;11.30;99.90;;;;;;4953748;29;20453;-50
2022/01/03 13:11:37;;;;;;;2.77;1.60;;;11.30;99.90;;;;;;4942510;29;20448;-49
2022/01/03 13:14:06;;;;;;;4.53;2.57;;;11.20;99.90;;;;;;4953721;29;20503;-51
2022/01/03 13:16:35;;;;;;;3.67;1.80;;;11.20;99.90;;;;;;4941849;29;20428;-50
2022/01/03 13:19:04;;;;;;;4.30;1.90;;;11.20;99.90;;;;;;4950098;29;20448;-51